Time;durP1;ratioP1;P1;durP2;ratioP2;P2;SDS_P1;SDS_P2;PMS_P1;PMS_P2;Temp;Humidity;BMP_temperature;BMP_pressure;BME280_temperature;BME280_humidity;BME280_pressure;Samples;Min_cycle;Max_cycle;Signal;HPM_P1;HPM_P2
2021/03/26 05:50:21;;;;;;;32.85;18.15;;;7.90;99.90;;;;;;5981718;23;20264;31
2021/03/26 05:53:08;;;;;;;34.55;17.70;;;8.00;99.90;;;;;;4874680;29;20055;-64
2021/03/26 05:56:03;;;;;;;26.00;17.02;;;8.10;99.90;;;;;;4896407;29;20055;-63
2021/03/26 05:58:51;;;;;;;33.58;18.70;;;8.10;99.90;;;;;;4903084;29;20412;-63
2021/03/26 06:01:46;;;;;;;32.72;18.45;;;8.10;99.90;;;;;;4871349;29;20509;-63
2021/03/26 06:05:05;;;;;;;33.88;19.42;;;8.10;99.90;;;;;;4859306;29;20061;-63
2021/03/26 06:08:32;;;;;;;34.58;18.50;;;8.20;99.90;;;;;;4866216;29;20091;-64
2021/03/26 06:11:36;;;;;;;31.80;17.90;;;8.10;99.90;;;;;;4819916;29;20107;-63
2021/03/26 06:14:47;;;;;;;40.75;20.70;;;8.50;99.90;;;;;;4819295;29;20061;-64
2021/03/26 06:18:03;;;;;;;30.42;16.77;;;8.50;99.90;;;;;;4873898;29;20057;-64
2021/03/26 06:21:16;;;;;;;31.33;17.38;;;8.50;99.90;;;;;;4870647;29;20055;-63
2021/03/26 06:24:43;;;;;;;27.45;18.40;;;8.40;99.90;;;;;;4880366;29;20084;-64
2021/03/26 06:27:29;;;;;;;36.58;16.92;;;8.40;99.90;;;;;;4895048;29;20120;-64
2021/03/26 06:30:13;;;;;;;22.65;16.80;;;8.50;99.90;;;;;;4885369;29;20109;-64
2021/03/26 06:33:27;;;;;;;32.80;17.90;;;8.50;99.90;;;;;;4864549;29;20582;-63
2021/03/26 06:36:28;;;;;;;27.58;16.38;;;8.50;99.90;;;;;;4875113;29;20045;-63
2021/03/26 06:39:25;;;;;;;28.42;16.83;;;8.60;99.90;;;;;;4874370;29;20045;-66
2021/03/26 06:42:13;;;;;;;27.00;16.85;;;8.80;99.90;;;;;;4865228;29;20144;-65
2021/03/26 06:45:13;;;;;;;28.13;15.88;;;9.00;99.90;;;;;;4858032;29;20057;-64
2021/03/26 06:47:53;;;;;;;29.58;17.27;;;9.00;99.90;;;;;;4877006;29;20044;-64
2021/03/26 06:50:39;;;;;;;25.83;15.88;;;9.10;99.90;;;;;;4874671;29;20138;-65
2021/03/26 06:53:13;;;;;;;27.00;16.77;;;9.10;99.90;;;;;;4881937;29;20072;-64
2021/03/26 06:55:49;;;;;;;25.15;15.50;;;9.60;99.90;;;;;;4864113;29;20048;-65
2021/03/26 06:59:07;;;;;;;25.65;15.95;;;9.90;99.90;;;;;;4881300;29;20037;-65
2021/03/26 07:01:50;;;;;;;25.33;16.17;;;10.30;99.90;;;;;;4886039;29;20066;-65
2021/03/26 07:04:50;;;;;;;23.33;16.52;;;10.50;99.90;;;;;;4880561;29;20048;-65
2021/03/26 07:07:38;;;;;;;25.45;16.90;;;10.40;99.90;;;;;;4879625;29;20052;-65
2021/03/26 07:10:36;;;;;;;22.98;15.07;;;10.70;99.90;;;;;;4879740;29;20045;-65
2021/03/26 07:13:41;;;;;;;25.95;16.00;;;10.50;99.90;;;;;;4870454;29;20399;-66
2021/03/26 07:16:25;;;;;;;25.02;15.60;;;10.90;99.90;;;;;;4872516;29;20060;-65
2021/03/26 07:19:17;;;;;;;23.02;15.70;;;11.00;99.90;;;;;;4873937;29;20044;-65
2021/03/26 07:22:06;;;;;;;26.85;16.45;;;11.10;99.90;;;;;;4872997;29;20048;-65
2021/03/26 07:25:01;;;;;;;27.08;16.35;;;11.40;99.90;;;;;;4875113;29;20044;-65
2021/03/26 07:27:38;;;;;;;34.75;16.55;;;11.40;99.90;;;;;;4878284;29;20052;-64
2021/03/26 07:30:19;;;;;;;21.30;16.77;;;12.50;99.90;;;;;;4880200;29;20045;-63
2021/03/26 07:32:52;;;;;;;23.08;16.00;;;13.00;99.90;;;;;;4879962;29;20524;-65
2021/03/26 07:35:33;;;;;;;25.75;15.77;;;14.30;99.90;;;;;;4877591;29;20049;-63
2021/03/26 07:38:30;;;;;;;27.90;16.08;;;15.20;99.90;;;;;;4878292;29;20045;-66
2021/03/26 07:41:11;;;;;;;27.63;16.95;;;15.30;99.90;;;;;;4875839;29;20049;-65
2021/03/26 07:43:49;;;;;;;21.67;16.33;;;15.20;99.90;;;;;;4877294;29;20069;-65
2021/03/26 07:46:57;;;;;;;27.58;16.95;;;14.70;99.90;;;;;;4889952;29;20576;-65
2021/03/26 07:50:07;;;;;;;26.67;17.55;;;14.90;99.90;;;;;;4842317;29;20534;-66
2021/03/26 07:52:44;;;;;;;25.95;17.58;;;14.90;99.90;;;;;;4896542;29;20076;-66
2021/03/26 07:55:23;;;;;;;24.92;18.63;;;15.00;99.90;;;;;;4893098;29;20045;-65
2021/03/26 07:58:23;;;;;;;26.95;18.80;;;15.80;99.90;;;;;;4879753;29;20045;-64
2021/03/26 08:01:14;;;;;;;24.08;18.40;;;15.00;99.90;;;;;;4873550;29;20524;-64
2021/03/26 08:04:10;;;;;;;31.58;20.85;;;14.60;99.90;;;;;;4881089;29;20056;-67
2021/03/26 08:07:17;;;;;;;31.77;20.95;;;13.90;99.90;;;;;;4867916;29;20049;-64
2021/03/26 08:10:15;;;;;;;29.40;21.13;;;13.30;99.90;;;;;;4876482;29;20068;-65
2021/03/26 08:12:56;;;;;;;29.98;22.08;;;13.20;99.90;;;;;;4879538;29;20053;-64
2021/03/26 08:15:51;;;;;;;32.67;23.13;;;13.10;99.90;;;;;;4882332;29;20505;-64
2021/03/26 08:18:29;;;;;;;31.70;23.38;;;12.70;99.90;;;;;;4888092;29;20064;-64
2021/03/26 08:21:11;;;;;;;37.50;25.00;;;12.60;99.90;;;;;;4902542;29;20049;-65
2021/03/26 08:23:47;;;;;;;42.50;26.65;;;12.30;99.90;;;;;;4891060;29;20052;-60
2021/03/26 08:26:30;;;;;;;31.33;24.75;;;12.30;99.90;;;;;;4901284;29;20068;-64
2021/03/26 08:29:16;;;;;;;37.65;25.83;;;13.40;99.90;;;;;;4888990;29;20469;-65
2021/03/26 08:32:05;;;;;;;36.15;25.70;;;14.20;99.90;;;;;;4880408;29;20140;-65
2021/03/26 08:34:49;;;;;;;35.25;26.65;;;14.70;99.90;;;;;;4874031;29;20333;-65
2021/03/26 08:37:24;;;;;;;36.47;27.27;;;15.10;99.90;;;;;;4857420;29;20413;-65
2021/03/26 08:39:54;;;;;;;36.13;28.33;;;14.40;99.90;;;;;;4866019;29;20067;-64
2021/03/26 08:42:27;;;;;;;39.17;27.00;;;13.80;99.90;;;;;;4879399;29;20151;-65
2021/03/26 08:44:58;;;;;;;39.78;27.33;;;13.30;99.90;;;;;;4874359;29;20124;-64
2021/03/26 08:47:30;;;;;;;41.45;27.02;;;13.70;99.90;;;;;;4875401;29;20041;-65
2021/03/26 08:50:27;;;;;;;37.28;26.75;;;13.80;99.90;;;;;;4881689;29;20409;-65
2021/03/26 08:53:05;;;;;;;38.10;25.23;;;13.80;99.90;;;;;;4895377;29;20059;-64
2021/03/26 08:55:44;;;;;;;37.78;27.08;;;14.20;99.90;;;;;;4873229;29;20053;-65
2021/03/26 08:58:31;;;;;;;36.45;26.55;;;14.00;99.90;;;;;;4893995;29;20045;-65
2021/03/26 09:01:22;;;;;;;43.97;27.65;;;13.20;99.90;;;;;;4885488;29;20049;-66
2021/03/26 09:03:59;;;;;;;44.65;29.73;;;13.10;99.90;;;;;;4885719;29;20073;-65
2021/03/26 09:06:57;;;;;;;35.95;27.92;;;13.00;99.90;;;;;;4883848;29;20044;-65
2021/03/26 09:09:42;;;;;;;42.75;28.17;;;13.70;99.90;;;;;;4845349;29;20065;-65
2021/03/26 09:12:30;;;;;;;42.65;27.70;;;13.90;99.90;;;;;;4886333;29;20059;-65
2021/03/26 09:15:24;;;;;;;33.15;23.98;;;14.60;99.90;;;;;;4885314;29;20377;-62
2021/03/26 09:17:57;;;;;;;37.67;27.02;;;14.90;99.90;;;;;;4888312;29;20057;-64
2021/03/26 09:20:32;;;;;;;35.88;26.10;;;14.50;99.90;;;;;;4888631;29;20071;-65
2021/03/26 09:23:27;;;;;;;39.53;26.67;;;14.40;99.90;;;;;;4893169;29;20379;-66
2021/03/26 09:25:57;;;;;;;35.05;26.63;;;14.10;99.90;;;;;;4883079;29;20045;-64
2021/03/26 09:28:29;;;;;;;35.90;25.50;;;13.70;99.90;;;;;;4886732;29;20509;-64
2021/03/26 09:31:03;;;;;;;39.10;28.88;;;13.50;99.90;;;;;;4884533;29;20100;-65
2021/03/26 09:33:29;;;;;;;32.20;26.13;;;13.70;99.90;;;;;;4880197;29;20117;-64
2021/03/26 09:36:01;;;;;;;41.00;27.95;;;14.90;99.90;;;;;;4886188;29;20109;-65
2021/03/26 09:38:37;;;;;;;34.17;25.48;;;14.70;99.90;;;;;;4900235;29;20096;-65
2021/03/26 09:41:14;;;;;;;34.60;24.40;;;15.90;99.90;;;;;;4887953;29;20656;-64
2021/03/26 09:43:51;;;;;;;32.00;24.45;;;15.70;99.90;;;;;;4866698;29;20562;-65
2021/03/26 09:46:22;;;;;;;37.83;24.45;;;15.70;99.90;;;;;;4879803;29;20053;-66
2021/03/26 09:49:09;;;;;;;37.80;27.17;;;15.50;99.90;;;;;;4901934;29;20139;-65
2021/03/26 09:51:55;;;;;;;35.10;25.52;;;14.60;99.90;;;;;;4877290;29;20074;-65
2021/03/26 09:54:28;;;;;;;39.97;26.50;;;14.80;99.90;;;;;;4870305;29;20037;-65
2021/03/26 09:57:23;;;;;;;39.78;25.63;;;15.00;99.90;;;;;;4889795;29;20041;-64
2021/03/26 10:00:00;;;;;;;33.05;24.40;;;15.40;99.90;;;;;;4885068;29;20056;-66
2021/03/26 10:02:36;;;;;;;31.15;23.55;;;16.30;99.90;;;;;;4880442;29;20056;-65
2021/03/26 10:05:12;;;;;;;35.07;24.87;;;16.70;99.90;;;;;;4872210;29;20113;-66
2021/03/26 10:07:44;;;;;;;33.20;24.15;;;16.40;99.90;;;;;;4877144;29;20037;-66
2021/03/26 10:13:08;;;;;;;28.45;22.17;;;16.70;99.90;;;;;;4878180;29;20290;-66
2021/03/26 10:15:38;;;;;;;25.67;20.65;;;16.20;99.90;;;;;;4864015;29;20061;-66
2021/03/26 10:18:11;;;;;;;27.17;19.23;;;17.00;99.90;;;;;;4863207;29;20376;-66
2021/03/26 10:20:45;;;;;;;31.05;20.75;;;17.60;99.90;;;;;;4868090;29;20053;-66
2021/03/26 10:23:33;;;;;;;27.70;21.13;;;17.80;99.90;;;;;;4899051;29;20056;-66
2021/03/26 10:26:17;;;;;;;26.90;20.45;;;17.00;99.90;;;;;;4901205;29;20055;-66
2021/03/26 10:29:12;;;;;;;25.60;19.02;;;17.90;99.90;;;;;;4882282;29;20064;-68
2021/03/26 10:31:40;;;;;;;29.95;20.40;;;18.10;99.90;;;;;;4888802;29;20509;-65
2021/03/26 10:34:10;;;;;;;22.20;18.42;;;18.50;99.90;;;;;;4876613;29;20101;-69
2021/03/26 10:36:45;;;;;;;21.02;17.67;;;18.60;99.90;;;;;;4879131;29;20577;-70
2021/03/26 10:39:15;;;;;;;22.25;18.15;;;17.80;99.90;;;;;;4867843;29;20049;-65
2021/03/26 10:42:04;;;;;;;24.10;17.35;;;16.40;99.90;;;;;;4886243;29;20049;-67
2021/03/26 10:44:40;;;;;;;19.20;15.10;;;16.50;99.90;;;;;;4891989;29;20049;-66
2021/03/26 10:47:18;;;;;;;22.85;14.45;;;16.30;99.90;;;;;;4893098;29;20053;-64
2021/03/26 10:49:46;;;;;;;;;;;16.60;99.90;;;;;;4876298;29;20044;-65
2021/03/26 10:52:17;;;;;;;21.00;14.93;;;16.80;99.90;;;;;;4896984;29;19970;-62
2021/03/26 10:54:49;;;;;;;15.85;12.73;;;16.90;99.90;;;;;;4904449;29;20063;-66
2021/03/26 10:57:26;;;;;;;16.65;13.75;;;17.50;99.90;;;;;;4892050;29;20427;-65
2021/03/26 11:00:01;;;;;;;21.83;14.25;;;17.20;99.90;;;;;;4885102;29;20286;-69
2021/03/26 11:02:40;;;;;;;19.67;14.70;;;17.80;99.80;;;;;;4885496;29;20398;-69
2021/03/26 11:05:19;;;;;;;18.98;14.45;;;17.80;99.60;;;;;;4878505;29;20063;-71
2021/03/26 11:07:50;;;;;;;20.35;14.85;;;17.40;99.30;;;;;;4877393;29;20068;-71
2021/03/26 11:10:22;;;;;;;19.48;14.88;;;17.20;99.90;;;;;;4860426;29;20060;-71
2021/03/26 11:12:53;;;;;;;20.95;14.02;;;18.10;99.70;;;;;;4879265;29;20060;-70
2021/03/26 11:15:24;;;;;;;18.65;13.68;;;18.00;99.30;;;;;;4872483;29;20052;-71
2021/03/26 11:18:13;;;;;;;18.38;12.70;;;18.20;99.20;;;;;;4875660;29;20045;-71
2021/03/26 11:20:45;;;;;;;22.55;12.55;;;18.20;98.20;;;;;;4854726;29;20144;-65
2021/03/26 11:23:17;;;;;;;16.30;11.38;;;17.40;97.10;;;;;;4869289;29;20049;-65
2021/03/26 11:25:45;;;;;;;13.68;10.88;;;17.80;97.40;;;;;;4869245;29;20509;-64
2021/03/26 11:28:20;;;;;;;16.05;12.57;;;18.10;96.80;;;;;;4873624;29;20036;-65
2021/03/26 11:30:57;;;;;;;17.70;12.73;;;18.70;96.20;;;;;;4870523;29;20543;-65
2021/03/26 11:33:36;;;;;;;13.05;9.10;;;17.20;97.40;;;;;;4874123;29;20493;-65
2021/03/26 11:36:29;;;;;;;16.10;11.68;;;16.80;96.50;;;;;;4870986;29;20052;-65
2021/03/26 11:38:59;;;;;;;14.43;11.60;;;17.00;97.20;;;;;;4872613;29;20128;-66
2021/03/26 11:41:31;;;;;;;15.82;11.75;;;16.80;97.70;;;;;;4867422;29;20509;-65
2021/03/26 11:44:02;;;;;;;10.55;8.63;;;16.70;97.80;;;;;;4874284;29;20051;-66
2021/03/26 11:46:39;;;;;;;10.52;8.85;;;17.30;97.30;;;;;;4869736;29;20127;-65
2021/03/26 11:49:15;;;;;;;12.35;8.73;;;17.30;96.50;;;;;;4872419;29;20049;-65
2021/03/26 11:51:48;;;;;;;10.05;8.18;;;18.00;95.20;;;;;;4868462;29;20059;-66
2021/03/26 11:54:25;;;;;;;11.23;8.45;;;17.60;94.70;;;;;;4867964;29;20052;-66
2021/03/26 11:56:54;;;;;;;;;;;17.40;94.80;;;;;;4849780;29;20513;-65
2021/03/26 11:59:50;;;;;;;11.93;7.28;;;17.50;94.70;;;;;;4867914;29;19924;-72
2021/03/26 12:02:48;;;;;;;9.43;6.75;;;17.90;93.10;;;;;;4865177;29;20124;-72
2021/03/26 12:05:27;;;;;;;11.38;6.35;;;17.70;93.60;;;;;;4866957;29;20061;-70
2021/03/26 12:08:03;;;;;;;6.90;5.82;;;18.40;92.10;;;;;;4851030;29;20049;-71
2021/03/26 12:10:35;;;;;;;13.13;7.90;;;18.20;92.00;;;;;;4866195;29;20064;-71
2021/03/26 12:13:12;;;;;;;10.85;7.65;;;17.40;93.30;;;;;;4864407;29;20135;-71
2021/03/26 12:15:42;;;;;;;9.88;7.55;;;18.80;92.20;;;;;;4867062;29;20044;-70
2021/03/26 12:18:18;;;;;;;12.50;7.97;;;19.00;91.60;;;;;;4865157;29;20652;-69
2021/03/26 12:20:46;;;;;;;10.68;8.77;;;19.40;90.90;;;;;;4870572;29;20048;-72
2021/03/26 12:23:30;;;;;;;12.82;9.02;;;18.90;90.90;;;;;;4870912;29;20077;-69
2021/03/26 12:26:05;;;;;;;11.15;8.95;;;19.10;90.50;;;;;;4878856;29;20064;-68
2021/03/26 12:28:42;;;;;;;11.18;8.52;;;19.40;90.80;;;;;;4873489;29;20084;-69
2021/03/26 12:31:20;;;;;;;13.43;10.48;;;19.90;90.10;;;;;;4875003;29;20094;-69
2021/03/26 12:33:52;;;;;;;18.38;11.50;;;19.60;89.00;;;;;;4877495;29;20045;-71
2021/03/26 12:36:26;;;;;;;15.60;11.45;;;18.90;90.30;;;;;;4876238;29;20071;-72
2021/03/26 12:39:01;;;;;;;17.45;10.38;;;18.90;90.60;;;;;;4877492;29;20069;-72
2021/03/26 12:41:41;;;;;;;17.00;11.52;;;18.80;90.50;;;;;;4854377;29;20526;-72
2021/03/26 12:44:21;;;;;;;16.30;10.85;;;18.50;91.40;;;;;;4886175;29;20056;-72
2021/03/26 12:47:25;;;;;;;13.48;11.00;;;19.20;90.30;;;;;;4884297;29;20501;-72
2021/03/26 12:50:04;;;;;;;16.20;11.77;;;19.40;88.50;;;;;;4878649;29;20094;-72
2021/03/26 12:53:01;;;;;;;14.35;11.02;;;18.50;90.40;;;;;;4884016;29;20063;-71
2021/03/26 12:55:45;;;;;;;14.02;11.60;;;19.10;90.00;;;;;;4889540;29;20065;-72
2021/03/26 12:58:35;;;;;;;14.88;11.05;;;18.60;90.30;;;;;;4894046;29;20074;-73
2021/03/26 13:01:09;;;;;;;16.42;11.57;;;19.00;90.20;;;;;;4880041;29;20033;-73
2021/03/26 13:03:38;;;;;;;14.85;10.82;;;19.00;89.30;;;;;;4888785;29;20090;-73
2021/03/26 13:06:11;;;;;;;14.60;10.43;;;19.80;87.90;;;;;;4890242;29;20061;-72
2021/03/26 13:08:42;;;;;;;14.85;12.45;;;20.00;86.50;;;;;;4877178;29;20045;-69
2021/03/26 13:11:20;;;;;;;14.10;12.48;;;19.40;86.70;;;;;;4878512;29;20045;-69
2021/03/26 13:13:59;;;;;;;17.15;12.18;;;18.30;89.90;;;;;;4874648;29;20072;-70
2021/03/26 13:16:43;;;;;;;20.73;12.20;;;18.90;89.90;;;;;;4872730;29;20502;-71
2021/03/26 13:19:22;;;;;;;18.33;12.93;;;18.00;90.50;;;;;;4874636;29;20110;-69
2021/03/26 13:22:08;;;;;;;23.10;13.18;;;17.80;90.90;;;;;;4871688;29;20505;-73
2021/03/26 13:24:59;;;;;;;17.10;14.25;;;17.90;91.80;;;;;;4854669;29;20153;-72
2021/03/26 13:27:47;;;;;;;18.88;12.35;;;18.40;91.50;;;;;;4884879;29;20053;-75
2021/03/26 13:30:29;;;;;;;18.77;12.80;;;19.10;90.70;;;;;;4896763;29;20053;-79
2021/03/26 13:33:19;;;;;;;15.35;12.13;;;19.30;88.90;;;;;;4893565;29;20157;-73
2021/03/26 13:36:00;;;;;;;14.75;11.25;;;19.70;88.30;;;;;;4890781;29;20060;-75
2021/03/26 13:38:50;;;;;;;12.00;10.50;;;19.80;87.00;;;;;;4896518;29;20055;-76
2021/03/26 13:41:40;;;;;;;14.80;12.55;;;19.70;87.30;;;;;;4882707;29;20041;-75
2021/03/26 13:44:42;;;;;;;14.85;11.77;;;19.50;86.90;;;;;;4879140;29;20041;-77
2021/03/26 13:47:17;;;;;;;14.70;12.15;;;19.40;87.50;;;;;;4877400;29;20048;-75
2021/03/26 13:49:55;;;;;;;16.95;11.25;;;19.10;88.00;;;;;;4879508;29;21101;-73
2021/03/26 13:52:30;;;;;;;14.73;10.65;;;19.80;86.60;;;;;;4877302;29;20175;-73
2021/03/26 13:55:07;;;;;;;15.95;11.45;;;20.50;85.50;;;;;;4867752;29;20429;-75
2021/03/26 13:57:37;;;;;;;17.92;14.25;;;20.80;83.60;;;;;;4882738;29;20044;-75
2021/03/26 14:00:15;;;;;;;15.77;11.73;;;20.50;83.70;;;;;;4876590;29;20105;-74
2021/03/26 14:02:45;;;;;;;14.85;10.95;;;19.90;85.80;;;;;;4883487;29;20052;-74
2021/03/26 14:05:24;;;;;;;16.42;11.18;;;20.30;85.00;;;;;;4896786;29;20539;-76
2021/03/26 14:08:00;;;;;;;18.95;11.70;;;18.80;86.70;;;;;;4875427;29;20041;-73
2021/03/26 14:10:47;;;;;;;13.27;10.90;;;19.00;87.20;;;;;;4877290;29;20128;-73
2021/03/26 14:13:18;;;;;;;15.27;10.52;;;18.90;87.20;;;;;;4873662;29;20128;-71
2021/03/26 14:15:47;;;;;;;15.52;10.88;;;18.50;87.20;;;;;;4877378;29;20127;-71
2021/03/26 14:18:22;;;;;;;15.18;9.95;;;18.50;89.90;;;;;;4882616;29;20051;-66
2021/03/26 14:20:51;;;;;;;14.15;10.52;;;18.40;87.90;;;;;;4889134;29;20088;-66
2021/03/26 14:23:23;;;;;;;13.98;10.73;;;18.30;88.80;;;;;;4873583;29;20056;-66
2021/03/26 14:25:56;;;;;;;14.75;10.30;;;17.90;89.00;;;;;;4885830;29;20052;-66
2021/03/26 14:28:29;;;;;;;16.50;10.30;;;18.00;88.30;;;;;;4880371;29;20044;-66
2021/03/26 14:31:04;;;;;;;14.05;9.85;;;18.20;88.70;;;;;;4896213;29;20100;-65
2021/03/26 14:33:45;;;;;;;11.93;9.27;;;18.60;87.40;;;;;;4892645;29;20116;-66
2021/03/26 14:36:21;;;;;;;15.75;10.45;;;18.40;86.40;;;;;;4883349;29;20045;-66
2021/03/26 14:38:58;;;;;;;14.30;9.00;;;18.40;87.20;;;;;;4875822;29;20063;-67
2021/03/26 14:41:29;;;;;;;14.32;7.50;;;18.40;88.20;;;;;;4875771;29;20072;-66
2021/03/26 14:44:22;;;;;;;8.38;7.47;;;18.20;86.00;;;;;;4877149;29;20037;-66
2021/03/26 14:46:57;;;;;;;8.55;7.38;;;17.80;84.90;;;;;;4873499;29;20045;-68
2021/03/26 14:49:34;;;;;;;11.68;8.23;;;17.70;87.30;;;;;;4873218;29;20045;-66
2021/03/26 14:52:05;;;;;;;11.82;7.88;;;17.70;85.80;;;;;;4868159;29;20053;-67
2021/03/26 14:54:36;;;;;;;9.20;7.53;;;17.80;85.80;;;;;;4878061;29;20812;-66
2021/03/26 14:57:11;;;;;;;10.57;7.50;;;18.10;85.50;;;;;;4874731;29;20139;-66
2021/03/26 15:00:02;;;;;;;11.55;7.60;;;18.10;85.20;;;;;;4875239;29;20049;-66
2021/03/26 15:02:41;;;;;;;9.93;8.00;;;18.10;85.60;;;;;;4863961;29;20083;-66
2021/03/26 15:05:14;;;;;;;10.63;8.15;;;18.00;86.80;;;;;;4868879;29;20063;-66
2021/03/26 15:07:42;;;;;;;12.65;8.05;;;17.80;87.70;;;;;;4875900;29;20042;-66
2021/03/26 15:10:27;;;;;;;12.98;7.35;;;17.20;86.60;;;;;;4879748;29;20048;-67
2021/03/26 15:13:05;;;;;;;14.50;8.73;;;17.30;87.10;;;;;;4885222;29;20056;-67
2021/03/26 15:15:41;;;;;;;11.10;7.90;;;17.30;87.70;;;;;;4870969;29;20045;-67
2021/03/26 15:18:37;;;;;;;11.98;9.02;;;17.30;88.40;;;;;;4868878;29;20041;-67
2021/03/26 15:21:16;;;;;;;12.13;8.80;;;17.20;88.30;;;;;;4862756;29;20057;-68
2021/03/26 15:23:50;;;;;;;11.23;7.90;;;17.40;88.30;;;;;;4883181;29;20131;-65
2021/03/26 15:26:29;;;;;;;13.82;9.43;;;17.80;87.40;;;;;;4863627;29;20045;-67
2021/03/26 15:28:59;;;;;;;11.27;7.70;;;17.40;87.80;;;;;;4879739;29;20077;-66
2021/03/26 15:31:46;;;;;;;13.50;8.38;;;17.80;87.80;;;;;;4870214;29;20059;-65
2021/03/26 15:34:25;;;;;;;12.25;7.90;;;17.40;88.10;;;;;;4874580;29;20053;-65
2021/03/26 15:36:55;;;;;;;11.57;8.25;;;17.70;87.80;;;;;;4866722;29;20049;-66
2021/03/26 15:39:40;;;;;;;10.85;7.88;;;17.80;87.10;;;;;;4873050;29;20076;-63
2021/03/26 15:42:14;;;;;;;10.90;7.90;;;17.70;87.60;;;;;;4886349;29;20067;-64
2021/03/26 15:44:50;;;;;;;16.90;8.63;;;17.50;87.60;;;;;;4868881;29;20036;-67
2021/03/26 15:47:21;;;;;;;13.90;7.43;;;17.40;87.90;;;;;;4881423;29;20120;-67
2021/03/26 15:50:05;;;;;;;10.90;8.18;;;17.30;88.90;;;;;;4857687;29;20156;-67
2021/03/26 15:52:38;;;;;;;10.77;7.57;;;17.20;89.80;;;;;;4880113;29;20052;-68
2021/03/26 15:55:25;;;;;;;12.52;7.93;;;17.30;89.10;;;;;;4876321;29;20048;-67
2021/03/26 15:58:34;;;;;;;11.18;7.97;;;17.10;88.30;;;;;;4875704;29;20123;-68
2021/03/26 16:01:14;;;;;;;11.73;8.02;;;17.00;89.60;;;;;;4871682;29;20060;-67
2021/03/26 16:03:58;;;;;;;10.27;7.57;;;16.80;89.90;;;;;;4880375;29;20080;-69
2021/03/26 16:06:43;;;;;;;12.07;8.05;;;16.90;89.70;;;;;;4872959;29;20053;-66
2021/03/26 16:09:21;;;;;;;13.70;8.10;;;17.10;89.50;;;;;;4869625;29;20109;-67
2021/03/26 16:12:24;;;;;;;15.68;8.32;;;16.90;89.60;;;;;;4867068;29;20464;-65
2021/03/26 16:14:59;;;;;;;11.27;8.02;;;16.90;90.00;;;;;;4847702;29;20064;-66
2021/03/26 16:17:52;;;;;;;13.18;8.60;;;17.00;89.90;;;;;;4862672;29;20501;-66
2021/03/26 16:20:45;;;;;;;13.13;8.77;;;16.90;89.80;;;;;;4862837;29;20631;-67
2021/03/26 16:23:24;;;;;;;13.13;8.88;;;16.60;90.20;;;;;;4870533;29;20048;-66
2021/03/26 16:26:16;;;;;;;12.55;8.20;;;16.60;90.30;;;;;;4867580;29;20477;-67
2021/03/26 16:29:11;;;;;;;11.02;7.93;;;16.50;90.40;;;;;;4878940;29;20059;-66
2021/03/26 16:32:21;;;;;;;11.88;9.35;;;16.50;90.80;;;;;;4879222;29;20543;-66
2021/03/26 16:35:13;;;;;;;11.48;7.78;;;16.30;90.90;;;;;;4829696;29;20082;-66
2021/03/26 16:37:43;;;;;;;15.65;8.25;;;16.20;91.10;;;;;;4836727;29;20368;-67
2021/03/26 16:40:38;;;;;;;15.00;9.02;;;16.20;91.30;;;;;;4864299;29;20060;-66
2021/03/26 16:43:42;;;;;;;11.32;7.97;;;16.00;91.50;;;;;;4855904;29;20059;-66
2021/03/26 16:46:21;;;;;;;16.65;9.88;;;15.90;92.10;;;;;;4869417;29;20052;-66
2021/03/26 16:49:13;;;;;;;11.77;8.43;;;15.90;92.00;;;;;;4865118;29;20045;-66
2021/03/26 16:52:14;;;;;;;15.63;8.50;;;15.80;92.10;;;;;;4872252;29;20057;-66
2021/03/26 16:54:46;;;;;;;21.33;8.32;;;15.70;92.30;;;;;;4873138;29;20127;-66
2021/03/26 16:58:13;;;;;;;19.33;8.23;;;15.70;92.30;;;;;;4875358;29;20509;-66
2021/03/26 17:01:15;;;;;;;16.65;8.30;;;15.70;92.40;;;;;;4847423;29;20056;-66
2021/03/26 17:07:19;;;;;;;12.48;8.48;;;15.60;92.20;;;;;;5089292;27;20947;-67
2021/03/26 17:10:08;;;;;;;13.88;7.75;;;15.60;92.20;;;;;;5036742;28;20065;-66
2021/03/26 17:13:06;;;;;;;12.30;7.95;;;15.50;92.30;;;;;;5074971;28;20119;-65
2021/03/26 17:15:54;;;;;;;14.05;8.80;;;15.40;92.40;;;;;;5070705;28;20036;-67
2021/03/26 17:18:52;;;;;;;16.70;9.32;;;15.40;92.50;;;;;;5088773;28;20050;-68
2021/03/26 17:22:07;;;;;;;12.25;8.50;;;15.40;92.50;;;;;;5081386;28;20048;-67
2021/03/26 17:25:17;;;;;;;9.45;8.45;;;15.40;93.10;;;;;;5069090;28;20049;-67
2021/03/26 17:28:11;;;;;;;15.73;8.23;;;15.40;92.80;;;;;;5074554;28;20503;-67
2021/03/26 17:31:33;;;;;;;11.20;7.65;;;15.30;92.80;;;;;;5070480;28;20083;-67
2021/03/26 17:34:04;;;;;;;10.50;7.20;;;15.30;93.10;;;;;;5014154;28;20076;-66
2021/03/26 17:37:03;;;;;;;13.60;8.20;;;15.30;93.30;;;;;;5068142;28;20086;-67
2021/03/26 17:40:00;;;;;;;14.27;8.00;;;15.30;93.40;;;;;;5083182;28;20698;-67
2021/03/26 17:42:43;;;;;;;15.05;8.07;;;15.20;93.30;;;;;;5082580;28;20047;-67
2021/03/26 17:45:31;;;;;;;16.27;8.38;;;15.20;93.20;;;;;;5087964;28;20054;-66
2021/03/26 17:48:02;;;;;;;10.98;7.80;;;15.10;93.40;;;;;;5079598;28;20044;-67
2021/03/26 17:50:57;;;;;;;11.52;7.63;;;15.20;93.40;;;;;;5082553;28;20423;-67
2021/03/26 17:53:57;;;;;;;13.70;8.45;;;15.10;93.50;;;;;;5081173;28;20102;-67
2021/03/26 17:56:50;;;;;;;13.57;8.18;;;15.00;93.30;;;;;;5080928;28;20048;-67
2021/03/26 17:59:56;;;;;;;15.20;9.48;;;15.00;93.40;;;;;;5084386;28;20065;-66
2021/03/26 18:02:51;;;;;;;17.85;12.15;;;15.00;93.40;;;;;;5073276;28;20076;-67
2021/03/26 18:05:28;;;;;;;15.60;9.00;;;14.90;93.40;;;;;;5084754;28;20094;-67
2021/03/26 18:08:06;;;;;;;14.25;8.82;;;14.90;93.60;;;;;;5081926;28;20094;-67
2021/03/26 18:10:39;;;;;;;14.32;9.60;;;14.80;93.60;;;;;;5081943;28;20048;-67
2021/03/26 18:13:42;;;;;;;13.23;9.93;;;14.70;93.70;;;;;;5091465;28;20059;-66
2021/03/26 18:16:13;;;;;;;23.38;20.38;;;14.70;93.80;;;;;;5089132;28;20411;-67
2021/03/26 18:18:55;;;;;;;13.13;8.70;;;14.60;93.90;;;;;;5066031;28;20127;-67
2021/03/26 18:21:38;;;;;;;15.35;8.18;;;14.60;94.20;;;;;;5068744;28;20466;-67
2021/03/26 18:24:25;;;;;;;15.73;8.38;;;14.50;94.10;;;;;;5064079;28;20040;-67
2021/03/26 18:27:18;;;;;;;16.58;9.55;;;14.50;94.20;;;;;;5072403;28;20102;-67
2021/03/26 18:30:17;;;;;;;11.02;8.18;;;14.40;94.50;;;;;;5064837;28;20132;-69
2021/03/26 18:33:15;;;;;;;16.67;9.05;;;14.40;94.50;;;;;;5067010;28;20100;-68
2021/03/26 18:35:44;;;;;;;16.75;9.02;;;14.40;94.40;;;;;;5081542;28;20124;-67
2021/03/26 18:38:37;;;;;;;14.25;9.30;;;14.40;94.50;;;;;;5070306;28;20036;-68
2021/03/26 18:41:37;;;;;;;18.05;10.13;;;14.30;94.90;;;;;;5074718;28;20067;-68
2021/03/26 18:44:23;;;;;;;15.38;9.98;;;14.20;94.80;;;;;;5052758;28;20057;-68
2021/03/26 18:47:02;;;;;;;14.43;9.35;;;14.20;95.00;;;;;;5058090;28;20386;-66
2021/03/26 18:50:01;;;;;;;18.48;9.32;;;14.10;95.00;;;;;;5056683;28;20076;-67
2021/03/26 18:53:03;;;;;;;26.15;14.60;;;14.10;95.10;;;;;;5036878;28;20162;-67
2021/03/26 18:55:47;;;;;;;13.45;9.32;;;14.00;95.30;;;;;;5066873;28;20140;-68
2021/03/26 18:58:35;;;;;;;14.57;9.30;;;14.00;95.50;;;;;;5067247;28;20258;-67
2021/03/26 19:01:17;;;;;;;17.75;8.73;;;13.90;95.80;;;;;;5064041;28;20406;-67
2021/03/26 19:03:51;;;;;;;12.95;8.35;;;13.80;95.90;;;;;;5062274;28;20052;-68
2021/03/26 19:06:21;;;;;;;11.65;8.93;;;13.80;95.90;;;;;;5065254;28;20526;-70
2021/03/26 19:09:11;;;;;;;15.57;8.70;;;13.80;96.20;;;;;;5076185;28;20047;-68
2021/03/26 19:11:47;;;;;;;13.18;8.45;;;13.80;96.30;;;;;;5072135;28;20069;-67
2021/03/26 19:14:23;;;;;;;11.80;8.00;;;13.90;96.30;;;;;;5066958;28;20094;-66
2021/03/26 19:16:57;;;;;;;11.90;8.00;;;13.90;96.20;;;;;;5067133;28;20123;-67
2021/03/26 19:19:35;;;;;;;13.82;7.13;;;13.90;96.40;;;;;;5070247;28;20475;-65
2021/03/26 19:22:22;;;;;;;15.15;8.60;;;14.00;96.70;;;;;;5066350;28;20044;-66
2021/03/26 19:25:01;;;;;;;15.10;7.75;;;14.00;96.40;;;;;;5064865;28;20551;-67
2021/03/26 19:27:55;;;;;;;10.68;7.43;;;14.00;96.40;;;;;;5067424;28;20056;-67
2021/03/26 19:30:32;;;;;;;14.43;8.88;;;13.90;96.50;;;;;;5062727;28;20408;-67
2021/03/26 19:33:12;;;;;;;17.95;8.30;;;13.90;96.60;;;;;;5067888;28;20119;-66
2021/03/26 19:35:49;;;;;;;11.77;7.50;;;13.90;96.80;;;;;;5066878;28;20403;-68
2021/03/26 19:38:20;;;;;;;15.43;7.90;;;13.80;96.90;;;;;;5069440;28;20045;-66
2021/03/26 19:40:56;;;;;;;26.83;15.10;;;13.80;97.00;;;;;;5066718;28;20048;-66
2021/03/26 19:43:29;;;;;;;13.02;8.43;;;13.80;97.10;;;;;;5060127;28;20047;-67
2021/03/26 19:46:03;;;;;;;14.13;9.00;;;13.80;97.30;;;;;;5067362;28;20412;-67
2021/03/26 19:48:36;;;;;;;13.25;8.65;;;13.90;97.20;;;;;;5068041;28;20044;-67
2021/03/26 19:51:17;;;;;;;18.50;8.73;;;13.90;97.30;;;;;;5068851;28;20153;-67